Time;durP1;ratioP1;P1;durP2;ratioP2;P2;SDS_P1;SDS_P2;PMS_P1;PMS_P2;Temp;Humidity;BMP_temperature;BMP_pressure;BME280_temperature;BME280_humidity;BME280_pressure;Samples;Min_cycle;Max_cycle;Signal;HPM_P1;HPM_P2
2022/10/22 00:01:27;;;;;;;;;;;;;;;11.24;51.48;100250.41;4938537;28;99456;-67
2022/10/22 00:03:53;;;;;;;;;;;;;;;11.20;51.39;100252.06;4940853;28;98891;-67
2022/10/22 00:06:19;;;;;;;;;;;;;;;11.19;51.42;100271.19;4950520;28;97758;-74
2022/10/22 00:08:45;;;;;;;;;;;;;;;11.15;51.46;100281.72;4950910;28;98488;-73
2022/10/22 00:11:14;;;;;;;;;;;;;;;11.12;51.47;100281.47;4937303;28;98059;-73
2022/10/22 00:13:41;;;;;;;;;;;;;;;11.09;51.92;100274.75;4954116;28;98401;-67
2022/10/22 00:16:07;;;;;;;;;;;;;;;11.06;51.30;100281.50;4944522;28;97931;-67
2022/10/22 00:18:33;;;;;;;;;;;;;;;11.04;51.59;100280.97;4942513;28;98058;-67
2022/10/22 00:21:00;;;;;;;;;;;;;;;11.03;51.68;100273.94;4945944;28;98060;-67
2022/10/22 00:23:25;;;;;;;;;;;;;;;11.03;52.00;100270.44;4944362;28;98007;-73
2022/10/22 00:25:52;;;;;;;;;;;;;;;11.03;51.52;100267.75;4951852;28;98432;-67
2022/10/22 00:28:18;;;;;;;;;;;;;;;11.03;51.88;100257.75;4940499;28;98094;-67
2022/10/22 00:30:46;;;;;;;;;;;;;;;11.02;51.74;100253.44;4943714;28;127832;-73
2022/10/22 00:33:12;;;;;;;;;;;;;;;11.02;51.94;100248.06;4937855;28;99990;-67
2022/10/22 00:35:41;;;;;;;;;;;;;;;11.03;51.39;100251.56;4951942;28;97957;-74
2022/10/22 00:38:07;;;;;;;;;;;;;;;11.03;51.75;100243.47;4949896;28;101536;-74
2022/10/22 00:40:34;;;;;;;;;;;;;;;11.03;51.59;100230.78;4942163;28;100309;-74
2022/10/22 00:43:01;;;;;;;;;;;;;;;11.04;51.99;100235.13;4956601;28;98374;-67
2022/10/22 00:45:27;;;;;;;;;;;;;;;11.05;51.51;100235.94;4944158;28;97909;-67
2022/10/22 00:48:11;;;;;;;;;;;;;;;11.03;51.88;100236.19;4944766;28;115375;-67
2022/10/22 00:50:37;;;;;;;;;;;;;;;11.04;51.67;100245.06;4945930;28;98604;-67
2022/10/22 00:53:06;;;;;;;;;;;;;;;11.01;51.54;100254.53;4968847;28;98241;-74
2022/10/22 00:55:32;;;;;;;;;;;;;;;11.03;51.51;100246.97;4937067;28;98462;-67
2022/10/22 00:57:58;;;;;;;;;;;;;;;11.03;51.65;100244.28;4949720;28;102268;-67
2022/10/22 01:00:24;;;;;;;;;;;;;;;11.02;51.45;100234.56;4948750;28;98854;-67
2022/10/22 01:02:51;;;;;;;;;;;;;;;11.05;51.79;100239.44;4939604;28;99166;-73
2022/10/22 01:05:17;;;;;;;;;;;;;;;11.05;51.71;100231.34;4944723;28;97889;-74
2022/10/22 01:07:46;;;;;;;;;;;;;;;11.05;51.52;100234.03;4953157;28;98588;-73
2022/10/22 01:10:56;;;;;;;;;;;;;;;11.05;51.72;100239.44;4951847;28;99764;-74
2022/10/22 01:13:37;;;;;;;;;;;;;;;11.05;51.96;100247.50;4900075;28;98324;-73
2022/10/22 01:16:23;;;;;;;;;;;;;;;11.05;51.84;100250.22;4900162;28;98133;-67
2022/10/22 01:18:55;;;;;;;;;;;;;;;11.03;51.65;100248.88;4923335;28;98286;-67
2022/10/22 01:21:32;;;;;;;;;;;;;;;11.01;51.53;100249.16;4949941;28;98298;-73
2022/10/22 01:24:23;;;;;;;;;;;;;;;10.97;51.44;100247.28;4949413;28;99180;-73
2022/10/22 01:27:08;;;;;;;;;;;;;;;10.95;51.29;100255.63;4954344;28;97967;-67
2022/10/22 01:30:08;;;;;;;;;;;;;;;10.94;51.83;100256.72;4968386;28;98000;-67
2022/10/22 01:32:47;;;;;;;;;;;;;;;10.93;51.70;100244.31;4937214;28;109809;-67
2022/10/22 01:35:15;;;;;;;;;;;;;;;10.93;51.53;100240.81;4948180;28;99005;-67
2022/10/22 01:37:52;;;;;;;;;;;;;;;10.91;51.60;100242.97;4944590;28;97986;-67
2022/10/22 01:40:18;;;;;;;;;;;;;;;10.90;51.71;100246.75;4947025;28;98252;-67
2022/10/22 01:42:58;;;;;;;;;;;;;;;10.90;51.39;100244.88;4928515;28;98231;-73
2022/10/22 01:45:25;;;;;;;;;;;;;;;10.91;51.33;100245.66;4955890;28;99233;-67
2022/10/22 01:47:56;;;;;;;;;;;;;;;10.90;51.54;100246.75;4928203;28;103018;-67
2022/10/22 01:50:38;;;;;;;;;;;;;;;10.91;51.97;100237.59;4946925;28;98130;-67
2022/10/22 01:53:17;;;;;;;;;;;;;;;10.90;51.54;100242.16;4928848;28;98284;-73
2022/10/22 01:56:03;;;;;;;;;;;;;;;10.89;51.77;100240.56;4945517;28;98173;-74
2022/10/22 01:58:54;;;;;;;;;;;;;;;10.90;52.23;100244.06;4958383;28;98203;-67
2022/10/22 02:01:30;;;;;;;;;;;;;;;10.91;52.07;100237.59;4976896;28;100331;-74
2022/10/22 02:04:00;;;;;;;;;;;;;;;10.90;51.57;100235.97;4926407;28;100685;-67
2022/10/22 02:06:26;;;;;;;;;;;;;;;10.91;51.38;100245.66;4944976;28;100209;-67
2022/10/22 02:08:53;;;;;;;;;;;;;;;10.91;51.33;100242.97;4961130;28;98209;-74
2022/10/22 02:11:19;;;;;;;;;;;;;;;10.90;51.45;100244.88;4951198;28;98565;-73
2022/10/22 02:13:50;;;;;;;;;;;;;;;10.92;51.59;100241.88;4941815;28;97812;-73
2022/10/22 02:16:38;;;;;;;;;;;;;;;10.93;51.54;100235.44;4936975;28;107164;-67
2022/10/22 02:19:11;;;;;;;;;;;;;;;10.94;51.74;100231.66;4945513;28;98055;-73
2022/10/22 02:21:37;;;;;;;;;;;;;;;10.95;51.40;100235.94;4947207;28;101949;-74
2022/10/22 02:24:03;;;;;;;;;;;;;;;10.96;51.91;100243.75;4954053;28;98995;-67
2022/10/22 02:26:32;;;;;;;;;;;;;;;10.96;51.76;100249.16;4938054;28;97866;-73
2022/10/22 02:29:11;;;;;;;;;;;;;;;10.99;51.62;100239.72;4944526;28;97950;-67
2022/10/22 02:31:38;;;;;;;;;;;;;;;11.00;51.53;100236.75;4960531;28;98039;-67
2022/10/22 02:34:08;;;;;;;;;;;;;;;11.00;52.12;100236.75;4957659;27;98370;-74
2022/10/22 02:36:35;;;;;;;;;;;;;;;11.02;51.46;100231.06;4951159;28;98152;-74
2022/10/22 02:39:01;;;;;;;;;;;;;;;11.04;51.75;100228.88;4943803;28;97806;-74
2022/10/22 02:41:27;;;;;;;;;;;;;;;11.05;51.80;100217.03;4948733;28;98294;-67
2022/10/22 02:43:54;;;;;;;;;;;;;;;11.06;51.81;100232.13;4934107;28;105152;-67
2022/10/22 02:46:20;;;;;;;;;;;;;;;11.09;51.63;100238.88;4947874;28;97927;-67
2022/10/22 02:48:46;;;;;;;;;;;;;;;11.10;51.92;100227.00;4936490;28;98238;-67
2022/10/22 02:51:12;;;;;;;;;;;;;;;11.11;51.46;100229.41;4945933;28;98142;-67
2022/10/22 02:53:38;;;;;;;;;;;;;;;11.12;51.82;100227.50;4945565;28;98134;-67
2022/10/22 02:56:05;;;;;;;;;;;;;;;11.13;51.68;100232.66;4945754;28;97966;-73
2022/10/22 02:58:31;;;;;;;;;;;;;;;11.15;51.55;100230.47;4942400;28;98234;-74
2022/10/22 03:00:57;;;;;;;;;;;;;;;11.17;51.70;100214.81;4944592;28;98297;-73
2022/10/22 03:03:24;;;;;;;;;;;;;;;11.19;51.61;100212.66;4940117;28;97960;-73
2022/10/22 03:05:51;;;;;;;;;;;;;;;11.21;51.96;100225.88;4945980;28;98026;-73
2022/10/22 03:08:17;;;;;;;;;;;;;;;11.24;51.85;100228.84;4940007;28;98248;-74
2022/10/22 03:10:43;;;;;;;;;;;;;;;11.26;51.80;100225.84;4928977;28;98100;-74
2022/10/22 03:13:10;;;;;;;;;;;;;;;11.27;51.87;100227.44;4957863;28;111944;-74
2022/10/22 03:15:36;;;;;;;;;;;;;;;11.30;52.09;100226.91;4926970;28;98183;-68
2022/10/22 03:18:02;;;;;;;;;;;;;;;11.32;51.88;100227.44;4942448;28;98050;-74
2022/10/22 03:20:29;;;;;;;;;;;;;;;11.34;51.90;100229.84;4944860;28;98450;-74
2022/10/22 03:22:55;;;;;;;;;;;;;;;11.36;51.93;100228.50;4942160;28;98144;-67
2022/10/22 03:25:22;;;;;;;;;;;;;;;11.39;51.82;100222.53;4952680;28;98057;-67
2022/10/22 03:27:50;;;;;;;;;;;;;;;11.41;51.60;100214.16;4938553;28;97987;-74
2022/10/22 03:30:16;;;;;;;;;;;;;;;11.42;51.90;100216.56;4944110;28;99918;-67
2022/10/22 03:32:44;;;;;;;;;;;;;;;11.44;51.84;100213.63;4937981;28;100317;-73
2022/10/22 03:35:10;;;;;;;;;;;;;;;11.45;51.79;100207.13;4943451;28;98291;-73
2022/10/22 03:37:37;;;;;;;;;;;;;;;11.46;51.88;100212.22;4945173;28;98039;-74
2022/10/22 03:40:04;;;;;;;;;;;;;;;11.48;51.77;100214.66;4943974;28;116634;-69
2022/10/22 03:42:30;;;;;;;;;;;;;;;11.48;51.67;100218.19;4943816;28;111981;-67
2022/10/22 03:44:56;;;;;;;;;;;;;;;11.49;51.96;100218.97;4936243;28;102778;-67
2022/10/22 03:47:24;;;;;;;;;;;;;;;11.49;51.66;100219.78;4943716;28;111111;-67
2022/10/22 03:49:51;;;;;;;;;;;;;;;11.50;51.78;100231.38;4959027;28;99524;-74
2022/10/22 03:52:17;;;;;;;;;;;;;;;11.49;51.92;100224.38;4943266;28;97987;-73
2022/10/22 03:54:43;;;;;;;;;;;;;;;11.49;52.23;100224.38;4955517;28;114287;-67
2022/10/22 03:57:10;;;;;;;;;;;;;;;11.49;52.08;100238.69;4928540;28;98269;-74
2022/10/22 03:59:37;;;;;;;;;;;;;;;11.50;51.91;100248.38;4939917;28;99929;-67
2022/10/22 04:02:03;;;;;;;;;;;;;;;11.50;51.70;100251.06;4936541;28;98019;-74
2022/10/22 04:04:29;;;;;;;;;;;;;;;11.51;51.92;100251.88;4938838;28;97871;-67
2022/10/22 04:06:55;;;;;;;;;;;;;;;11.51;52.09;100250.00;4942529;28;98035;-67
2022/10/22 04:09:21;;;;;;;;;;;;;;;11.52;52.16;100254.31;4942546;28;98476;-74
2022/10/22 04:11:47;;;;;;;;;;;;;;;11.53;52.11;100257.81;4942659;28;98032;-67
2022/10/22 04:14:13;;;;;;;;;;;;;;;11.54;51.75;100254.03;4942635;28;98187;-74
2022/10/22 04:16:40;;;;;;;;;;;;;;;11.55;52.17;100256.47;4941247;28;98360;-67
2022/10/22 04:19:10;;;;;;;;;;;;;;;11.58;51.95;100257.78;4928267;28;98222;-74
2022/10/22 04:21:36;;;;;;;;;;;;;;;11.60;52.22;100257.53;4952535;28;100713;-67
2022/10/22 04:24:02;;;;;;;;;;;;;;;11.63;51.86;100268.56;4954421;28;98290;-74
2022/10/22 04:26:28;;;;;;;;;;;;;;;11.64;51.89;100264.78;4943530;28;97963;-74
2022/10/22 04:28:55;;;;;;;;;;;;;;;11.67;51.79;100268.78;4937779;28;98087;-74
2022/10/22 04:31:23;;;;;;;;;;;;;;;11.69;51.69;100269.34;4956366;28;98536;-67
2022/10/22 04:33:53;;;;;;;;;;;;;;;11.72;51.93;100272.28;4944202;28;98186;-67
2022/10/22 04:36:19;;;;;;;;;;;;;;;11.75;51.90;100273.59;4949727;28;98219;-67
2022/10/22 04:38:46;;;;;;;;;;;;;;;11.77;51.81;100274.16;4942142;28;99389;-68
2022/10/22 04:41:16;;;;;;;;;;;;;;;11.79;51.61;100263.88;4936721;28;98138;-73
2022/10/22 04:43:45;;;;;;;;;;;;;;;11.83;51.96;100261.41;4944086;28;98073;-74
2022/10/22 04:46:11;;;;;;;;;;;;;;;11.84;51.95;100257.66;4946695;28;98137;-67
2022/10/22 04:48:38;;;;;;;;;;;;;;;11.86;52.15;100258.97;4937798;28;99380;-74
2022/10/22 04:51:05;;;;;;;;;;;;;;;11.89;51.73;100252.22;4941385;28;98094;-73
2022/10/22 04:53:34;;;;;;;;;;;;;;;11.90;51.91;100249.22;4952726;28;98180;-67
2022/10/22 04:56:23;;;;;;;;;;;;;;;11.93;52.03;100247.88;4940138;28;98249;-67
2022/10/22 04:58:52;;;;;;;;;;;;;;;11.98;51.97;100235.13;4941128;28;98678;-74
2022/10/22 05:01:23;;;;;;;;;;;;;;;12.06;51.88;100239.13;4945226;28;98219;-74
2022/10/22 05:03:50;;;;;;;;;;;;;;;12.16;51.91;100255.25;4941816;28;97823;-75
2022/10/22 05:06:16;;;;;;;;;;;;;;;12.22;52.00;100251.44;4927755;28;98272;-74
2022/10/22 05:08:44;;;;;;;;;;;;;;;12.28;51.86;100249.50;4928657;28;98077;-74
2022/10/22 05:11:13;;;;;;;;;;;;;;;12.32;51.88;100258.63;4953907;28;98034;-75
2022/10/22 05:13:41;;;;;;;;;;;;;;;12.36;51.83;100253.47;4944331;28;115072;-74
2022/10/22 05:16:07;;;;;;;;;;;;;;;12.39;52.05;100255.63;4943200;28;98161;-75
2022/10/22 05:18:35;;;;;;;;;;;;;;;12.40;51.97;100254.53;4944836;28;98889;-75
2022/10/22 05:21:02;;;;;;;;;;;;;;;12.43;51.87;100249.34;4942131;28;98258;-75
2022/10/22 05:23:29;;;;;;;;;;;;;;;12.42;52.24;100245.06;4943478;28;99598;-75
2022/10/22 05:25:55;;;;;;;;;;;;;;;12.43;52.08;100257.47;4919994;28;97968;-75
2022/10/22 05:28:21;;;;;;;;;;;;;;;12.44;52.21;100244.75;4943843;28;98243;-74
2022/10/22 05:30:54;;;;;;;;;;;;;;;12.44;52.13;100247.47;4941403;28;100642;-67
2022/10/22 05:33:23;;;;;;;;;;;;;;;12.43;51.94;100246.66;4927145;28;98402;-67
2022/10/22 05:35:50;;;;;;;;;;;;;;;12.43;52.17;100256.66;4939310;28;98005;-67
2022/10/22 05:38:17;;;;;;;;;;;;;;;12.43;52.08;100262.06;4948917;28;98314;-67
2022/10/22 05:40:43;;;;;;;;;;;;;;;12.43;52.31;100262.06;4944409;28;97977;-67
2022/10/22 05:43:09;;;;;;;;;;;;;;;12.42;52.21;100274.78;4943070;28;104376;-67
2022/10/22 05:45:39;;;;;;;;;;;;;;;12.42;52.20;100272.09;4955565;28;98228;-68
2022/10/22 05:48:06;;;;;;;;;;;;;;;12.40;52.19;100281.56;4934860;28;98369;-67
2022/10/22 05:50:36;;;;;;;;;;;;;;;12.38;52.20;100273.75;4938792;28;98037;-68
2022/10/22 05:53:03;;;;;;;;;;;;;;;12.37;52.13;100277.50;4938207;28;98457;-67
2022/10/22 05:55:30;;;;;;;;;;;;;;;12.36;52.17;100289.41;4941810;28;98543;-68
2022/10/22 05:57:56;;;;;;;;;;;;;;;12.34;52.18;100286.22;4942144;28;98181;-67
2022/10/22 06:00:22;;;;;;;;;;;;;;;12.33;52.17;100287.28;4935056;28;99887;-66
2022/10/22 06:02:51;;;;;;;;;;;;;;;12.34;52.12;100296.19;4932099;28;119990;-67
2022/10/22 06:05:18;;;;;;;;;;;;;;;12.32;52.08;100293.78;4923983;28;97939;-67
2022/10/22 06:07:44;;;;;;;;;;;;;;;12.33;52.25;100302.69;4952212;28;100318;-67
2022/10/22 06:10:14;;;;;;;;;;;;;;;12.33;52.12;100303.50;4947005;28;98235;-66
2022/10/22 06:12:40;;;;;;;;;;;;;;;12.35;52.15;100297.81;4962413;28;98275;-67
2022/10/22 06:15:07;;;;;;;;;;;;;;;12.36;52.01;100313.75;4945082;28;99230;-67
2022/10/22 06:17:33;;;;;;;;;;;;;;;12.37;52.22;100296.44;4946130;28;98375;-67
2022/10/22 06:19:59;;;;;;;;;;;;;;;12.40;52.00;100303.19;4933142;28;128513;-67
2022/10/22 06:22:25;;;;;;;;;;;;;;;12.41;51.99;100299.38;4065331;28;10000947;-66
2022/10/22 06:24:52;;;;;;;;;;;;;;;12.43;51.95;100308.03;4943809;28;98281;-67
2022/10/22 06:27:18;;;;;;;;;;;;;;;12.44;52.05;100307.72;4948190;28;98497;-65
2022/10/22 06:29:44;;;;;;;;;;;;;;;12.48;52.00;100316.09;4945615;28;98187;-66
2022/10/22 06:32:11;;;;;;;;;;;;;;;12.51;51.96;100321.72;4939369;28;131361;-66
2022/10/22 06:34:38;;;;;;;;;;;;;;;12.55;52.10;100323.88;4943175;28;98158;-66
2022/10/22 06:37:04;;;;;;;;;;;;;;;12.58;51.90;100328.72;4941144;28;98060;-66
2022/10/22 06:39:30;;;;;;;;;;;;;;;12.59;52.00;100327.63;4942241;28;99481;-66
2022/10/22 06:41:56;;;;;;;;;;;;;;;12.60;52.00;100327.31;4930925;28;98276;-66
2022/10/22 06:44:23;;;;;;;;;;;;;;;12.63;52.08;100323.25;4946616;28;98203;-66
2022/10/22 06:46:51;;;;;;;;;;;;;;;12.65;52.03;100327.28;4945480;28;98092;-66
2022/10/22 06:49:17;;;;;;;;;;;;;;;12.69;51.99;100328.34;4943494;28;97995;-66
2022/10/22 06:51:44;;;;;;;;;;;;;;;12.73;51.79;100334.81;4957112;28;98619;-66
2022/10/22 06:54:10;;;;;;;;;;;;;;;12.77;52.05;100337.72;4952840;28;109582;-66
2022/10/22 06:56:36;;;;;;;;;;;;;;;12.80;52.02;100336.34;4926909;28;99203;-66
2022/10/22 06:59:02;;;;;;;;;;;;;;;12.84;51.87;100351.72;4950186;28;98287;-66
2022/10/22 07:01:31;;;;;;;;;;;;;;;12.88;51.85;100341.94;4949128;28;98706;-66
2022/10/22 07:03:57;;;;;;;;;;;;;;;12.94;51.80;100348.13;4941953;28;98018;-66
2022/10/22 07:06:24;;;;;;;;;;;;;;;12.97;51.90;100356.47;4936891;28;98799;-66
2022/10/22 07:08:50;;;;;;;;;;;;;;;13.03;51.67;100351.81;4943539;28;98701;-66
2022/10/22 07:11:21;;;;;;;;;;;;;;;13.06;51.67;100350.44;4942971;28;98634;-66
2022/10/22 07:13:48;;;;;;;;;;;;;;;13.12;51.49;100349.28;4945772;28;98565;-66
2022/10/22 07:16:15;;;;;;;;;;;;;;;13.17;51.73;100357.38;4953507;28;98391;-66
2022/10/22 07:18:41;;;;;;;;;;;;;;;13.22;51.54;100360.81;4945537;28;98114;-66
2022/10/22 07:21:08;;;;;;;;;;;;;;;13.23;51.83;100370.56;4945848;28;98065;-66
2022/10/22 07:23:34;;;;;;;;;;;;;;;13.22;51.86;100371.63;4945152;28;98051;-67
2022/10/22 07:26:01;;;;;;;;;;;;;;;13.23;51.62;100373.28;4945431;28;98068;-67
2022/10/22 07:28:27;;;;;;;;;;;;;;;13.27;51.84;100376.22;4959475;28;98399;-66
2022/10/22 07:30:53;;;;;;;;;;;;;;;13.30;51.59;100385.69;4934803;28;98086;-66
2022/10/22 07:33:20;;;;;;;;;;;;;;;13.30;51.70;100383.78;4946380;28;105715;-66
2022/10/22 07:35:46;;;;;;;;;;;;;;;13.34;51.95;100392.13;4939683;28;97990;-66
2022/10/22 07:38:12;;;;;;;;;;;;;;;13.34;51.58;100387.50;4950576;28;98471;-66
2022/10/22 07:40:39;;;;;;;;;;;;;;;13.37;51.75;100386.16;4955734;28;98904;-66
2022/10/22 07:43:05;;;;;;;;;;;;;;;13.40;51.93;100393.66;4935375;28;98486;-66
2022/10/22 07:45:32;;;;;;;;;;;;;;;13.39;51.59;100400.19;4942215;28;98862;-66
2022/10/22 07:47:59;;;;;;;;;;;;;;;13.39;52.11;100402.88;4943872;28;98591;-66
2022/10/22 07:50:25;;;;;;;;;;;;;;;13.39;51.78;100402.88;4992475;28;99535;-66
2022/10/22 07:52:51;;;;;;;;;;;;;;;13.41;51.83;100404.22;4967326;28;97727;-66
2022/10/22 07:55:17;;;;;;;;;;;;;;;13.46;51.73;100400.66;4988333;28;97664;-66
2022/10/22 07:57:44;;;;;;;;;;;;;;;13.52;51.83;100399.53;4971698;28;97794;-71
2022/10/22 08:00:11;;;;;;;;;;;;;;;13.72;51.65;100404.69;4975730;28;98030;-70
2022/10/22 08:02:38;;;;;;;;;;;;;;;13.92;51.06;100414.47;4978017;28;97583;-70
2022/10/22 08:05:04;;;;;;;;;;;;;;;13.92;51.38;100413.66;4992149;28;97791;-70
2022/10/22 08:07:30;;;;;;;;;;;;;;;14.01;51.09;100414.63;4970645;28;97682;-71
2022/10/22 08:09:57;;;;;;;;;;;;;;;14.20;51.25;100409.22;4992436;28;98323;-71
2022/10/22 08:12:24;;;;;;;;;;;;;;;14.34;50.72;100403.84;4976269;28;97635;-70
2022/10/22 08:14:51;;;;;;;;;;;;;;;14.38;50.76;100405.72;4987465;28;97681;-70
2022/10/22 08:17:18;;;;;;;;;;;;;;;14.39;51.25;100406.50;4978351;28;97598;-70
2022/10/22 08:19:45;;;;;;;;;;;;;;;14.39;51.03;100423.59;4977678;28;97906;-70
2022/10/22 08:22:10;;;;;;;;;;;;;;;14.35;51.35;100424.47;4992350;28;99554;-70
2022/10/22 08:24:37;;;;;;;;;;;;;;;14.27;51.27;100425.94;4981710;28;97501;-71
2022/10/22 08:27:03;;;;;;;;;;;;;;;14.23;51.61;100438.47;4975538;28;97648;-67
2022/10/22 08:29:29;;;;;;;;;;;;;;;14.23;51.65;100433.84;4971083;28;104645;-67
2022/10/22 08:31:55;;;;;;;;;;;;;;;14.24;51.44;100440.06;4969967;28;98465;-67
2022/10/22 08:34:21;;;;;;;;;;;;;;;14.24;51.71;100437.34;4975618;28;97961;-67
2022/10/22 08:36:47;;;;;;;;;;;;;;;14.29;51.78;100445.41;4975550;28;116108;-67
2022/10/22 08:39:13;;;;;;;;;;;;;;;14.34;51.67;100445.31;4975985;28;127693;-67
2022/10/22 08:41:49;;;;;;;;;;;;;;;14.39;51.27;100441.75;4973390;28;97687;-67
2022/10/22 08:44:31;;;;;;;;;;;;;;;14.42;51.23;100452.00;4975364;28;97724;-67
2022/10/22 08:47:15;;;;;;;;;;;;;;;14.45;51.26;100448.72;5005028;28;98014;-67
2022/10/22 08:49:42;;;;;;;;;;;;;;;14.46;51.60;100450.31;4975222;28;97834;-68
2022/10/22 08:52:16;;;;;;;;;;;;;;;14.47;51.59;100457.38;4971942;28;98450;-67
2022/10/22 08:54:57;;;;;;;;;;;;;;;14.49;51.80;100456.00;4989866;28;97591;-68
2022/10/22 08:57:43;;;;;;;;;;;;;;;14.55;51.57;100456.75;4984827;28;97827;-68
2022/10/22 09:00:09;;;;;;;;;;;;;;;14.53;51.73;100456.22;4991006;28;100164;-67
2022/10/22 09:02:38;;;;;;;;;;;;;;;14.51;52.06;100466.56;4993480;28;97548;-66
2022/10/22 09:05:26;;;;;;;;;;;;;;;14.51;51.88;100465.75;5004194;28;98174;-69
2022/10/22 09:07:52;;;;;;;;;;;;;;;14.49;51.76;100463.31;4989788;28;98342;-65
2022/10/22 09:10:20;;;;;;;;;;;;;;;14.48;51.62;100467.91;4973738;28;97977;-64
2022/10/22 09:12:47;;;;;;;;;;;;;;;14.49;51.97;100466.03;4984306;28;97520;-63
2022/10/22 09:15:17;;;;;;;;;;;;;;;14.49;51.70;100469.56;4967085;28;98895;-67
2022/10/22 09:18:16;;;;;;;;;;;;;;;14.51;51.60;100468.47;4973506;28;98923;-63
2022/10/22 09:20:48;;;;;;;;;;;;;;;14.53;51.67;100461.63;4991054;28;97782;-63
2022/10/22 09:23:47;;;;;;;;;;;;;;;14.58;51.50;100458.88;4985014;28;97580;-65
2022/10/22 09:26:17;;;;;;;;;;;;;;;14.60;51.39;100462.06;4989720;28;99650;-73
2022/10/22 09:28:51;;;;;;;;;;;;;;;14.67;51.47;100459.00;4974484;28;99829;-73
2022/10/22 09:31:17;;;;;;;;;;;;;;;14.71;51.60;100466.25;4973452;28;98198;-73
2022/10/22 09:33:44;;;;;;;;;;;;;;;14.70;51.78;100463.84;4974427;28;98281;-67
2022/10/22 09:36:18;;;;;;;;;;;;;;;14.70;51.85;100463.84;4970269;28;97622;-66
2022/10/22 09:38:49;;;;;;;;;;;;;;;14.71;52.01;100468.16;4978992;28;97720;-69
2022/10/22 09:41:17;;;;;;;;;;;;;;;14.71;51.59;100470.88;4978810;28;99575;-70
2022/10/22 09:43:47;;;;;;;;;;;;;;;14.72;51.92;100473.28;4954182;28;97680;-69
2022/10/22 09:46:19;;;;;;;;;;;;;;;14.81;51.53;100470.69;4981575;28;97830;-71
2022/10/22 09:49:06;;;;;;;;;;;;;;;14.95;51.23;100471.56;4990082;28;97904;-71
2022/10/22 09:51:59;;;;;;;;;;;;;;;15.00;51.47;100472.59;4992889;28;97977;-72
2022/10/22 09:54:30;;;;;;;;;;;;;;;15.22;51.34;100470.06;4966957;28;99519;-75
2022/10/22 09:57:04;;;;;;;;;;;;;;;15.26;51.13;100468.34;5009456;28;97569;-75
2022/10/22 09:59:32;;;;;;;;;;;;;;;15.35;51.34;100474.69;4980792;28;97439;-75
2022/10/22 10:02:01;;;;;;;;;;;;;;;15.40;51.25;100465.66;4975772;28;98352;-68
2022/10/22 10:04:30;;;;;;;;;;;;;;;15.44;50.99;100466.66;4976938;28;98073;-68
2022/10/22 10:06:57;;;;;;;;;;;;;;;15.49;51.21;100460.34;4970583;28;98667;-76
2022/10/22 10:09:25;;;;;;;;;;;;;;;15.54;50.97;100457.53;4969554;28;97499;-76
2022/10/22 10:12:04;;;;;;;;;;;;;;;15.60;51.25;100456.31;4989667;28;99570;-76
2022/10/22 10:14:47;;;;;;;;;;;;;;;15.67;51.17;100457.56;4977183;28;97909;-76
2022/10/22 10:17:20;;;;;;;;;;;;;;;15.68;51.13;100470.06;5009393;28;97950;-76
2022/10/22 10:19:56;;;;;;;;;;;;;;;15.62;51.24;100465.78;5007273;28;97676;-76
2022/10/22 10:22:41;;;;;;;;;;;;;;;15.61;51.44;100453.31;5003708;28;98164;-76
2022/10/22 10:25:31;;;;;;;;;;;;;;;15.83;51.02;100466.22;4989832;28;97803;-76
2022/10/22 10:28:12;;;;;;;;;;;;;;;16.12;50.47;100452.31;4989166;28;97633;-76
2022/10/22 10:30:55;;;;;;;;;;;;;;;16.58;49.96;100451.28;4981556;28;97515;-68
2022/10/22 10:33:30;;;;;;;;;;;;;;;17.48;48.65;100442.28;4990746;28;98727;-68
2022/10/22 10:36:06;;;;;;;;;;;;;;;18.10;48.16;100444.91;5005878;28;98100;-68
2022/10/22 10:38:54;;;;;;;;;;;;;;;18.06;48.56;100455.66;4991523;28;97907;-75
2022/10/22 10:41:37;;;;;;;;;;;;;;;17.80;49.47;100460.22;4997324;28;98161;-76
2022/10/22 10:44:21;;;;;;;;;;;;;;;17.62;49.64;100451.97;4991236;28;98413;-68
2022/10/22 10:47:01;;;;;;;;;;;;;;;17.50;49.99;100459.94;4961209;28;97813;-68
2022/10/22 10:49:30;;;;;;;;;;;;;;;17.38;50.19;100457.00;4992943;28;97739;-75
2022/10/22 10:52:09;;;;;;;;;;;;;;;17.28;50.52;100463.50;4978438;28;98193;-68
2022/10/22 10:55:01;;;;;;;;;;;;;;;17.17;50.63;100459.41;4975374;28;98305;-68
2022/10/22 10:57:41;;;;;;;;;;;;;;;17.13;50.75;100467.44;4992229;28;97892;-75
2022/10/22 11:00:14;;;;;;;;;;;;;;;17.20;50.39;100471.63;5005704;28;97563;-75
2022/10/22 11:02:56;;;;;;;;;;;;;;;17.27;50.41;100470.06;4995839;28;97860;-76
2022/10/22 11:05:47;;;;;;;;;;;;;;;17.54;50.03;100466.34;5003226;28;97446;-75
2022/10/22 11:08:25;;;;;;;;;;;;;;;17.71;49.94;100478.44;4996974;28;97663;-75
2022/10/22 11:11:15;;;;;;;;;;;;;;;17.72;50.09;100480.84;4985956;28;99275;-76
2022/10/22 11:14:09;;;;;;;;;;;;;;;17.77;50.17;100485.41;4982905;28;98493;-75
2022/10/22 11:16:48;;;;;;;;;;;;;;;17.87;49.95;100485.91;5003587;28;101365;-68
2022/10/22 11:19:31;;;;;;;;;;;;;;;17.98;49.78;100486.44;4976522;28;97679;-75
2022/10/22 11:22:10;;;;;;;;;;;;;;;18.08;49.91;100488.06;4976211;28;97718;-68
2022/10/22 11:24:38;;;;;;;;;;;;;;;18.16;49.73;100484.56;5005903;28;98275;-68
2022/10/22 11:27:24;;;;;;;;;;;;;;;18.23;49.75;100487.59;4991022;28;97677;-67
2022/10/22 11:29:58;;;;;;;;;;;;;;;18.51;49.45;100490.06;4989533;28;97753;-68
2022/10/22 11:32:26;;;;;;;;;;;;;;;19.13;48.68;100492.47;4951568;28;97940;-76
2022/10/22 11:35:00;;;;;;;;;;;;;;;19.03;48.86;100490.09;4977614;28;97918;-68
2022/10/22 11:37:29;;;;;;;;;;;;;;;19.23;49.00;100497.63;4978024;28;98014;-75
2022/10/22 11:39:58;;;;;;;;;;;;;;;19.46;48.73;100498.22;4977483;28;99629;-68
2022/10/22 11:42:36;;;;;;;;;;;;;;;19.40;49.14;100493.22;4985698;28;97537;-75
2022/10/22 11:45:14;;;;;;;;;;;;;;;19.37;49.29;100492.78;4985168;28;97921;-75
2022/10/22 11:48:11;;;;;;;;;;;;;;;19.50;48.96;100503.81;5010060;28;97977;-76
2022/10/22 11:50:56;;;;;;;;;;;;;;;19.40;49.21;100502.22;4977176;28;97843;-76
2022/10/22 11:53:45;;;;;;;;;;;;;;;19.45;49.28;100503.97;4976651;28;97412;-76
2022/10/22 11:56:22;;;;;;;;;;;;;;;19.27;49.47;100501.31;4991485;28;97895;-75
2022/10/22 11:58:48;;;;;;;;;;;;;;;19.01;50.14;100498.59;4970604;28;97836;-76
2022/10/22 12:01:21;;;;;;;;;;;;;;;18.97;49.91;100491.38;4972220;28;97664;-76
2022/10/22 12:03:51;;;;;;;;;;;;;;;19.03;49.87;100495.56;4972207;28;97668;-76
2022/10/22 12:06:20;;;;;;;;;;;;;;;19.06;49.66;100494.91;4985515;28;97546;-76
2022/10/22 12:08:56;;;;;;;;;;;;;;;18.95;50.00;100504.56;4971150;28;97708;-77
2022/10/22 12:11:41;;;;;;;;;;;;;;;19.04;49.66;100495.22;5004365;28;97565;-76
2022/10/22 12:14:53;;;;;;;;;;;;;;;18.99;50.06;100498.13;4989146;28;98050;-67
2022/10/22 12:17:20;;;;;;;;;;;;;;;18.95;50.11;100496.38;4927540;28;97794;-67
2022/10/22 12:19:58;;;;;;;;;;;;;;;18.93;50.04;100502.16;4927744;28;97728;-75
2022/10/22 12:22:26;;;;;;;;;;;;;;;18.89;50.04;100501.19;4951656;28;97763;-67
2022/10/22 12:24:56;;;;;;;;;;;;;;;18.74;50.39;100498.94;4971260;28;98179;-76
2022/10/22 12:27:39;;;;;;;;;;;;;;;18.70;50.27;100506.97;4976700;28;97629;-68
2022/10/22 12:30:22;;;;;;;;;;;;;;;18.82;50.15;100493.50;4973002;28;98440;-67
2022/10/22 12:32:51;;;;;;;;;;;;;;;19.01;49.99;100490.41;4992712;28;97547;-76
2022/10/22 12:35:19;;;;;;;;;;;;;;;19.10;49.84;100499.41;4975813;28;97853;-68
2022/10/22 12:37:49;;;;;;;;;;;;;;;19.14;50.00;100499.56;4990580;28;98082;-75
2022/10/22 13:47:26;;;;;;;;;;;;;;;18.27;50.98;100515.84;5429004;23;100418;-58
2022/10/22 13:49:53;;;;;;;;;;;;;;;18.32;50.94;100504.00;4882574;28;98387;-58
2022/10/22 13:52:26;;;;;;;;;;;;;;;18.42;50.93;100513.81;4859547;28;98603;-63
2022/10/22 13:54:52;;;;;;;;;;;;;;;18.50;50.69;100510.28;4879782;28;114727;-58
2022/10/22 13:57:18;;;;;;;;;;;;;;;18.54;50.66;100524.91;4880068;28;127025;-61
2022/10/22 13:59:44;;;;;;;;;;;;;;;18.59;50.85;100524.78;4881502;28;127752;-63
2022/10/22 14:02:13;;;;;;;;;;;;;;;18.59;51.01;100528.28;4882967;28;125663;-63